createdAt,value
2019-04-16T00:01:23.151Z,3.30
2019-04-16T00:03:56.048Z,2.70
2019-04-16T00:06:51.325Z,3.33
2019-04-16T00:09:41.065Z,3.17
2019-04-16T00:12:22.051Z,3.07
2019-04-16T00:14:49.018Z,3.00
2019-04-16T00:17:16.489Z,3.57
2019-04-16T00:19:43.487Z,3.20
2019-04-16T00:22:18.677Z,3.17
2019-04-16T00:24:48.442Z,3.27
2019-04-16T00:27:15.218Z,3.33
2019-04-16T00:29:42.157Z,3.30
2019-04-16T00:32:28.798Z,2.90
2019-04-16T00:34:55.843Z,3.03
2019-04-16T00:37:22.634Z,3.37
2019-04-16T00:39:49.522Z,3.63
2019-04-16T00:42:16.597Z,3.57
2019-04-16T00:44:43.543Z,3.73
2019-04-16T00:47:10.484Z,3.47
2019-04-16T00:49:37.960Z,3.00
2019-04-16T00:52:06.717Z,2.80
2019-04-16T00:54:33.934Z,3.07
2019-04-16T00:57:00.742Z,2.70
2019-04-16T00:59:27.661Z,2.50
2019-04-16T01:01:54.694Z,2.93
2019-04-16T01:04:21.599Z,2.57
2019-04-16T01:06:48.494Z,2.77
2019-04-16T01:09:15.326Z,2.63
2019-04-16T01:11:42.117Z,2.80
2019-04-16T01:14:10.219Z,2.37
2019-04-16T01:16:37.060Z,2.20
2019-04-16T01:19:04.285Z,2.40
2019-04-16T01:21:31.368Z,2.70
2019-04-16T01:23:58.322Z,1.90
2019-04-16T01:26:26.864Z,2.30
2019-04-16T01:29:02.942Z,2.13
2019-04-16T01:31:51.274Z,2.40
2019-04-16T01:34:43.535Z,2.20
2019-04-16T01:37:25.868Z,2.70
2019-04-16T01:39:54.790Z,2.33
2019-04-16T01:42:23.636Z,2.20
2019-04-16T01:44:50.452Z,2.43
2019-04-16T01:47:17.443Z,2.50
2019-04-16T01:49:44.484Z,2.67
2019-04-16T01:52:11.281Z,2.47
2019-04-16T01:54:38.154Z,2.30
2019-04-16T01:57:05.102Z,2.43
2019-04-16T01:59:35.640Z,2.60
2019-04-16T02:02:00.847Z,2.30
2019-04-16T02:04:27.882Z,2.20
2019-04-16T02:06:57.263Z,2.40
2019-04-16T02:09:23.570Z,2.47
2019-04-16T02:11:50.500Z,2.40
2019-04-16T02:14:21.917Z,2.73
2019-04-16T02:16:47.134Z,2.57
2019-04-16T02:19:14.149Z,1.97
2019-04-16T02:21:41.514Z,2.30
2019-04-16T02:24:09.323Z,2.00
2019-04-16T02:26:36.434Z,2.50
2019-04-16T02:29:03.479Z,2.17
2019-04-16T02:31:30.407Z,2.70
2019-04-16T02:33:57.202Z,2.20
2019-04-16T02:36:24.101Z,2.30
2019-04-16T02:38:53.412Z,2.40
2019-04-16T02:41:23.373Z,2.00
2019-04-16T02:43:48.543Z,2.40
2019-04-16T02:46:15.461Z,1.80
2019-04-16T02:48:42.497Z,2.23
2019-04-16T02:51:18.121Z,2.52
2019-04-16T02:53:54.449Z,2.00
2019-04-16T02:56:43.947Z,2.20
2019-04-16T02:59:17.984Z,2.35
2019-04-16T03:02:07.525Z,2.35
2019-04-16T03:04:41.829Z,2.02
2019-04-16T03:07:08.829Z,2.20
2019-04-16T03:09:39.772Z,2.17
2019-04-16T03:12:04.908Z,2.20
2019-04-16T03:14:32.024Z,1.82
2019-04-16T03:17:06.834Z,2.33
2019-04-16T03:19:38.965Z,2.40
2019-04-16T03:22:06.117Z,2.30
2019-04-16T03:24:32.938Z,2.40
2019-04-16T03:26:59.954Z,2.10
2019-04-16T03:29:27.527Z,2.20
2019-04-16T03:31:58.043Z,2.15
2019-04-16T03:34:24.666Z,2.47
2019-04-16T03:36:51.664Z,2.50
2019-04-16T03:39:18.591Z,2.30
2019-04-16T03:41:45.430Z,2.22
2019-04-16T03:44:12.373Z,2.20
2019-04-16T03:46:40.253Z,2.20
2019-04-16T03:49:07.362Z,2.02
2019-04-16T03:51:35.638Z,2.22
2019-04-16T03:54:04.887Z,2.05
2019-04-16T03:56:31.998Z,2.12
2019-04-16T03:58:58.810Z,1.97
2019-04-16T04:01:25.723Z,2.03
2019-04-16T04:03:54.480Z,2.17
2019-04-16T04:06:21.346Z,2.00
2019-04-16T04:08:50.461Z,2.00
2019-04-16T04:11:16.992Z,1.98
2019-04-16T04:13:43.857Z,2.70
2019-04-16T04:16:11.383Z,2.00
2019-04-16T04:18:42.874Z,1.90
2019-04-16T04:21:07.408Z,2.30
2019-04-16T04:23:34.214Z,2.12
2019-04-16T04:26:05.514Z,2.20
2019-04-16T04:28:32.262Z,1.60
2019-04-16T04:31:00.899Z,2.13
2019-04-16T04:33:41.981Z,1.90
2019-04-16T04:36:08.302Z,1.83
2019-04-16T04:38:37.521Z,1.63
2019-04-16T04:41:04.898Z,1.70
2019-04-16T04:43:32.129Z,1.60
2019-04-16T04:45:59.602Z,2.07
2019-04-16T04:48:26.548Z,1.77
2019-04-16T04:50:53.429Z,1.80
2019-04-16T04:53:20.270Z,2.00
2019-04-16T04:55:47.161Z,1.83
2019-04-16T04:58:14.074Z,1.53
2019-04-16T05:00:41.181Z,1.43
2019-04-16T05:03:12.385Z,1.90
2019-04-16T05:05:47.109Z,1.67
2019-04-16T05:08:14.021Z,1.67
2019-04-16T05:10:43.292Z,1.60
2019-04-16T05:13:09.562Z,1.50
2019-04-16T05:15:36.714Z,1.83
2019-04-16T05:18:05.774Z,1.70
2019-04-16T05:20:32.347Z,1.90
2019-04-16T05:22:59.146Z,1.70
2019-04-16T05:25:26.047Z,1.40
2019-04-16T05:27:52.855Z,1.43
2019-04-16T05:30:21.773Z,1.50
2019-04-16T05:32:49.102Z,1.30
2019-04-16T05:35:15.944Z,1.40
2019-04-16T05:37:42.762Z,1.33
2019-04-16T05:40:09.896Z,1.30
2019-04-16T05:42:36.711Z,1.40
2019-04-16T05:45:05.486Z,1.67
2019-04-16T05:47:33.187Z,1.63
2019-04-16T05:50:00.157Z,1.77
2019-04-16T05:52:27.007Z,1.60
2019-04-16T05:55:05.201Z,1.47
2019-04-16T05:57:34.170Z,1.57
2019-04-16T06:00:03.285Z,1.80
2019-04-16T06:02:42.408Z,1.73
2019-04-16T06:05:09.710Z,1.50
2019-04-16T06:07:38.092Z,1.30
2019-04-16T06:10:07.123Z,1.67
2019-04-16T06:12:40.694Z,2.20
2019-04-16T06:15:21.306Z,1.80
2019-04-16T06:18:05.406Z,1.93
2019-04-16T06:20:53.046Z,1.70
2019-04-16T06:23:48.145Z,2.17
2019-04-16T06:26:22.830Z,1.60
2019-04-16T06:28:56.384Z,1.97
2019-04-16T06:31:51.081Z,1.90
2019-04-16T06:34:30.208Z,2.00
2019-04-16T06:37:10.085Z,2.17
2019-04-16T06:40:02.657Z,2.07
2019-04-16T06:42:38.438Z,1.83
2019-04-16T06:45:23.098Z,2.07
2019-04-16T06:47:54.449Z,2.07
2019-04-16T06:50:41.069Z,1.87
2019-04-16T06:53:26.550Z,2.10
2019-04-16T06:56:16.439Z,1.90
2019-04-16T06:58:58.166Z,2.57
2019-04-16T07:01:36.814Z,2.20
2019-04-16T07:04:07.261Z,2.10
2019-04-16T07:06:54.978Z,1.57
2019-04-16T07:09:41.528Z,2.10
2019-04-16T07:12:23.515Z,2.17
2019-04-16T07:14:50.627Z,1.97
2019-04-16T07:17:18.721Z,2.10
2019-04-16T07:19:46.110Z,2.83
2019-04-16T07:22:13.006Z,2.50
2019-04-16T07:24:40.068Z,2.33
2019-04-16T07:27:07.723Z,2.33
2019-04-16T07:29:42.131Z,2.83
2019-04-16T07:32:27.293Z,2.00
2019-04-16T07:35:27.209Z,2.43
2019-04-16T07:38:12.669Z,2.83
2019-04-16T07:40:53.303Z,2.13
2019-04-16T07:43:45.605Z,2.50
2019-04-16T07:46:31.322Z,2.90
2019-04-16T07:49:16.473Z,2.23
2019-04-16T07:52:01.653Z,2.83
2019-04-16T07:54:42.870Z,2.50
2019-04-16T07:57:10.567Z,3.40
2019-04-16T07:59:37.389Z,2.87
2019-04-16T08:02:04.777Z,2.70
2019-04-16T08:04:35.218Z,2.70
2019-04-16T08:07:00.558Z,2.60
2019-04-16T08:09:29.944Z,3.03
2019-04-16T08:11:56.194Z,2.67
2019-04-16T08:14:22.991Z,2.50
2019-04-16T08:16:49.824Z,2.50
2019-04-16T08:19:16.855Z,2.93
2019-04-16T08:21:44.554Z,2.90
2019-04-16T08:24:17.128Z,3.53
2019-04-16T08:26:45.066Z,3.40
2019-04-16T08:29:12.252Z,3.23
2019-04-16T08:31:44.548Z,3.13
2019-04-16T08:34:11.239Z,2.80
2019-04-16T08:36:38.129Z,2.87
2019-04-16T08:39:07.566Z,3.37
2019-04-16T08:41:34.705Z,3.03
2019-04-16T08:44:03.522Z,2.70
2019-04-16T08:46:30.533Z,2.67
2019-04-16T08:48:57.434Z,2.87
2019-04-16T08:51:30.638Z,2.67
2019-04-16T08:53:53.749Z,2.50
2019-04-16T08:56:20.659Z,2.50
2019-04-16T08:58:47.456Z,2.50
2019-04-16T09:01:20.116Z,2.60
2019-04-16T09:03:46.794Z,2.83
2019-04-16T09:06:14.273Z,2.03
2019-04-16T09:08:47.014Z,2.20
2019-04-16T09:11:29.405Z,2.57
2019-04-16T09:13:59.745Z,2.30
2019-04-16T09:16:34.993Z,2.63
2019-04-16T09:19:07.400Z,3.60
2019-04-16T09:21:34.293Z,2.33
2019-04-16T09:24:20.974Z,2.67
2019-04-16T09:26:56.379Z,2.97
2019-04-16T09:29:51.970Z,2.30
2019-04-16T09:32:31.618Z,2.00
2019-04-16T09:35:09.816Z,2.47
2019-04-16T09:37:55.434Z,2.43
2019-04-16T09:40:40.996Z,2.40
2019-04-16T09:43:16.541Z,2.60
2019-04-16T09:45:39.108Z,2.00
2019-04-16T09:48:06.332Z,2.40
2019-04-16T09:50:33.324Z,2.40
2019-04-16T09:53:01.922Z,2.40
2019-04-16T09:55:28.850Z,3.23
2019-04-16T09:57:58.061Z,2.93
2019-04-16T10:00:30.370Z,2.23
2019-04-16T10:03:04.275Z,2.70
2019-04-16T10:05:31.161Z,2.87
2019-04-16T10:07:58.118Z,2.77
2019-04-16T10:10:27.944Z,2.90
2019-04-16T10:12:53.726Z,3.00
2019-04-16T10:15:20.879Z,2.50
2019-04-16T10:17:47.729Z,2.70
2019-04-16T10:20:14.730Z,2.63
2019-04-16T10:22:41.643Z,3.10
2019-04-16T10:25:12.087Z,2.63
2019-04-16T10:27:40.795Z,2.57
2019-04-16T10:30:40.423Z,3.10
2019-04-16T10:33:07.437Z,2.77
2019-04-16T10:35:34.365Z,2.90
2019-04-16T10:38:09.077Z,3.10
2019-04-16T10:40:41.633Z,3.17
2019-04-16T10:43:25.538Z,2.77
2019-04-16T10:46:10.429Z,3.60
2019-04-16T10:48:54.841Z,3.50
2019-04-16T10:51:50.460Z,4.03
2019-04-16T10:54:33.796Z,3.77
2019-04-16T10:57:21.854Z,4.43
2019-04-16T10:59:54.378Z,3.37
2019-04-16T11:02:58.963Z,4.00
2019-04-16T11:05:31.159Z,3.93
2019-04-16T11:07:58.641Z,4.30
2019-04-16T11:10:25.680Z,4.17
2019-04-16T11:12:52.685Z,3.83
2019-04-16T11:15:27.256Z,4.10
2019-04-16T11:17:54.273Z,4.23
2019-04-16T11:20:21.277Z,3.90
2019-04-16T11:22:48.361Z,4.40
2019-04-16T11:25:15.314Z,4.53
2019-04-16T11:27:44.839Z,5.20
2019-04-16T11:30:23.445Z,4.47
2019-04-16T11:32:53.409Z,4.80
2019-04-16T11:35:23.044Z,4.97
2019-04-16T11:37:49.270Z,4.97
2019-04-16T11:40:16.274Z,4.37
2019-04-16T11:42:43.068Z,5.20
2019-04-16T11:45:13.470Z,5.37
2019-04-16T11:47:40.447Z,5.00
2019-04-16T11:50:07.543Z,4.60
2019-04-16T11:52:34.539Z,4.83
2019-04-16T11:55:01.629Z,4.70
2019-04-16T11:57:29.354Z,5.43
2019-04-16T12:00:06.461Z,5.63
2019-04-16T12:02:45.770Z,5.67
2019-04-16T12:05:22.171Z,5.67
2019-04-16T12:07:57.684Z,6.43
2019-04-16T12:10:56.433Z,5.80
2019-04-16T12:13:45.516Z,5.50
2019-04-16T12:16:40.967Z,6.30
2019-04-16T12:19:26.433Z,5.13
2019-04-16T12:22:11.671Z,5.57
2019-04-16T12:25:03.549Z,5.50
2019-04-16T12:27:48.811Z,5.97
2019-04-16T12:30:34.065Z,5.20
2019-04-16T12:33:31.367Z,6.10
2019-04-16T12:36:14.443Z,6.00
2019-04-16T12:38:48.783Z,5.40
2019-04-16T12:41:50.259Z,5.50
2019-04-16T12:44:44.497Z,5.43
2019-04-16T12:47:14.559Z,4.87
2019-04-16T12:49:59.917Z,5.80
2019-04-16T12:52:33.178Z,6.33
2019-04-16T12:55:16.963Z,4.43
2019-04-16T12:58:03.279Z,5.43
2019-04-16T13:00:48.389Z,5.17
2019-04-16T13:03:25.855Z,6.13
2019-04-16T13:06:15.462Z,5.57
2019-04-16T13:09:01.030Z,5.57
2019-04-16T13:11:36.439Z,5.50
2019-04-16T13:14:16.142Z,5.20
2019-04-16T13:17:05.420Z,5.37
2019-04-16T13:19:50.922Z,5.97
2019-04-16T13:22:20.000Z,5.73
2019-04-16T13:24:50.811Z,5.30
2019-04-16T13:27:20.459Z,5.70
2019-04-16T13:29:47.349Z,5.33
2019-04-16T13:32:14.170Z,5.47
2019-04-16T13:34:41.136Z,6.07
2019-04-16T13:37:08.030Z,5.50
2019-04-16T13:39:54.696Z,5.70
2019-04-16T13:42:21.701Z,5.73
2019-04-16T13:44:53.013Z,5.00
2019-04-16T13:47:20.208Z,5.63
2019-04-16T13:49:54.514Z,5.50
2019-04-16T13:52:25.136Z,5.77
2019-04-16T13:55:10.097Z,5.97
2019-04-16T13:57:37.702Z,6.70
2019-04-16T14:00:23.749Z,5.83
2019-04-16T14:03:00.417Z,5.30
2019-04-16T14:05:27.301Z,6.10
2019-04-16T14:07:54.347Z,5.63
2019-04-16T14:10:21.372Z,6.30
2019-04-16T14:12:48.170Z,5.60
2019-04-16T14:15:30.796Z,5.57
2019-04-16T14:17:52.168Z,5.63
2019-04-16T14:20:14.811Z,5.67
2019-04-16T14:22:41.725Z,5.97
2019-04-16T14:25:08.900Z,5.83
2019-04-16T14:27:35.858Z,5.90
2019-04-16T14:30:10.044Z,5.73
2019-04-16T14:32:35.679Z,5.03
2019-04-16T14:35:10.100Z,4.73
2019-04-16T14:37:36.937Z,5.03
2019-04-16T14:40:18.738Z,5.30
2019-04-16T14:42:45.726Z,4.87
2019-04-16T14:45:22.223Z,4.47
2019-04-16T14:47:49.138Z,4.60
2019-04-16T14:50:15.957Z,4.27
2019-04-16T14:52:42.981Z,4.60
2019-04-16T14:55:14.589Z,4.77
2019-04-16T14:57:59.655Z,4.03
2019-04-16T15:00:47.703Z,4.53
2019-04-16T15:03:33.051Z,4.27
2019-04-16T15:06:06.381Z,3.63
2019-04-16T15:08:52.832Z,4.00
2019-04-16T15:11:39.394Z,4.90
2019-04-16T15:14:15.441Z,4.10
2019-04-16T15:17:01.909Z,4.63
2019-04-16T15:19:31.569Z,4.90
2019-04-16T15:22:36.494Z,4.33
2019-04-16T15:25:11.963Z,4.60
2019-04-16T15:27:55.026Z,3.80
2019-04-16T15:30:31.333Z,4.23
2019-04-16T15:33:16.337Z,4.37
2019-04-16T15:35:47.734Z,4.70
2019-04-16T15:38:34.463Z,4.60
2019-04-16T15:41:36.330Z,4.77
2019-04-16T15:44:31.931Z,4.30
2019-04-16T15:47:16.287Z,4.33
2019-04-16T15:50:05.604Z,4.23
2019-04-16T15:52:50.648Z,4.30
2019-04-16T15:55:30.888Z,4.67
2019-04-16T15:58:26.670Z,3.90
2019-04-16T16:01:31.561Z,3.73
2019-04-16T16:04:26.954Z,4.03
2019-04-16T16:06:57.970Z,4.30
2019-04-16T16:09:44.680Z,4.47
2019-04-16T16:12:13.490Z,4.43
2019-04-16T16:14:40.435Z,4.10
2019-04-16T16:17:07.371Z,4.03
2019-04-16T16:19:34.666Z,4.63
2019-04-16T16:22:01.589Z,4.47
2019-04-16T16:24:28.503Z,3.87
2019-04-16T16:26:55.538Z,3.60
2019-04-16T16:29:22.333Z,3.30
2019-04-16T16:31:49.245Z,4.10
2019-04-16T16:34:16.087Z,3.73
2019-04-16T16:36:42.990Z,3.50
2019-04-16T16:39:09.795Z,3.03
2019-04-16T16:41:36.620Z,3.70
2019-04-16T16:44:04.343Z,3.37
2019-04-16T16:46:57.489Z,3.17
2019-04-16T16:49:22.950Z,3.50
2019-04-16T16:52:12.462Z,3.13
2019-04-16T16:54:39.724Z,3.33
2019-04-16T16:57:12.398Z,3.90
2019-04-16T17:00:08.002Z,3.30
2019-04-16T17:02:56.161Z,2.90
2019-04-16T17:05:29.675Z,2.83
2019-04-16T17:07:56.470Z,2.90
2019-04-16T17:10:23.390Z,3.20
2019-04-16T17:12:50.218Z,3.07
2019-04-16T17:15:17.122Z,2.87
2019-04-16T17:17:43.993Z,2.83
2019-04-16T17:20:11.106Z,2.73
2019-04-16T17:22:40.742Z,2.77
2019-04-16T17:25:10.525Z,3.07
2019-04-16T17:27:50.218Z,3.23
2019-04-16T17:30:05.379Z,3.10
2019-04-16T17:32:32.470Z,2.90
2019-04-16T17:34:59.689Z,2.90
2019-04-16T17:37:28.691Z,2.87
2019-04-16T17:40:00.184Z,3.03
2019-04-16T17:42:29.286Z,3.47
2019-04-16T17:45:34.243Z,2.77
2019-04-16T17:48:23.740Z,2.93
2019-04-16T17:51:08.947Z,2.87
2019-04-16T17:53:47.326Z,2.70
2019-04-16T17:56:32.566Z,3.10
2019-04-16T17:59:02.305Z,3.00
2019-04-16T18:01:44.494Z,2.80
2019-04-16T18:04:29.857Z,2.63
2019-04-16T18:07:15.044Z,2.70
2019-04-16T18:09:47.327Z,3.60
2019-04-16T18:12:33.963Z,3.37
2019-04-16T18:15:12.943Z,3.57
2019-04-16T18:17:47.920Z,3.00
2019-04-16T18:20:57.353Z,3.53
2019-04-16T18:23:53.122Z,2.93
2019-04-16T18:26:33.053Z,2.97
2019-04-16T18:29:02.909Z,3.33
2019-04-16T18:31:44.162Z,3.53
2019-04-16T18:34:40.237Z,3.30
2019-04-16T18:37:27.081Z,2.90
2019-04-16T18:40:28.667Z,3.07
2019-04-16T18:43:26.774Z,3.00
2019-04-16T18:46:15.326Z,2.70
2019-04-16T18:48:44.911Z,2.87
2019-04-16T18:51:12.011Z,2.90
2019-04-16T18:53:40.194Z,3.03
2019-04-16T18:56:07.662Z,3.10
2019-04-16T18:58:34.548Z,3.57
2019-04-16T19:01:07.715Z,2.90
2019-04-16T19:03:34.504Z,3.30
2019-04-16T19:06:01.401Z,2.90
2019-04-16T19:08:40.746Z,3.00
2019-04-16T19:10:57.018Z,2.50
2019-04-16T19:13:24.155Z,3.40
2019-04-16T19:15:51.158Z,2.80
2019-04-16T19:18:20.243Z,3.13
2019-04-16T19:20:51.444Z,3.00
2019-04-16T19:23:16.168Z,2.93
2019-04-16T19:25:43.014Z,3.10
2019-04-16T19:28:09.805Z,3.03
2019-04-16T19:30:36.778Z,3.40
2019-04-16T19:33:03.836Z,2.87
2019-04-16T19:35:30.685Z,3.27
2019-04-16T19:37:57.705Z,3.10
2019-04-16T19:40:24.778Z,2.90
2019-04-16T19:42:51.765Z,3.00
2019-04-16T19:45:18.785Z,3.57
2019-04-16T19:47:45.706Z,3.53
2019-04-16T19:50:12.610Z,3.10
2019-04-16T19:52:39.539Z,3.67
2019-04-16T19:55:12.000Z,3.60
2019-04-16T19:57:36.061Z,3.33
2019-04-16T20:00:03.880Z,3.30
2019-04-16T20:02:33.406Z,3.50
2019-04-16T20:04:59.683Z,3.53
2019-04-16T20:07:26.598Z,3.27
2019-04-16T20:09:53.446Z,3.10
2019-04-16T20:12:20.225Z,2.70
2019-04-16T20:14:47.026Z,3.03
2019-04-16T20:17:13.991Z,3.00
2019-04-16T20:19:59.699Z,2.93
2019-04-16T20:22:28.189Z,3.20
2019-04-16T20:24:55.103Z,3.10
2019-04-16T20:27:22.000Z,2.80
2019-04-16T20:29:49.052Z,3.13
2019-04-16T20:32:15.963Z,3.27
2019-04-16T20:34:45.240Z,2.67
2019-04-16T20:37:11.696Z,3.00
2019-04-16T20:39:40.794Z,2.43
2019-04-16T20:42:07.321Z,2.47
2019-04-16T20:44:34.148Z,2.90
2019-04-16T20:47:03.585Z,2.87
2019-04-16T20:49:29.870Z,2.80
2019-04-16T20:52:00.676Z,2.67
2019-04-16T20:54:26.154Z,2.63
2019-04-16T20:56:53.911Z,3.30
2019-04-16T20:59:21.082Z,2.03
2019-04-16T21:01:47.893Z,2.00
2019-04-16T21:04:14.706Z,2.40
2019-04-16T21:06:42.202Z,2.10
2019-04-16T21:09:09.231Z,2.20
2019-04-16T21:11:40.420Z,2.23
2019-04-16T21:14:06.029Z,2.10
2019-04-16T21:16:33.918Z,2.20
2019-04-16T21:19:01.674Z,2.33
2019-04-16T21:21:28.645Z,2.17
2019-04-16T21:23:55.456Z,2.30
2019-04-16T21:26:23.010Z,1.97
2019-04-16T21:29:04.201Z,2.47
2019-04-16T21:31:35.256Z,2.23
2019-04-16T21:34:29.328Z,2.03
2019-04-16T21:37:03.052Z,1.97
2019-04-16T21:39:35.199Z,2.10
2019-04-16T21:42:03.309Z,2.00
2019-04-16T21:44:30.579Z,2.23
2019-04-16T21:46:58.303Z,1.73
2019-04-16T21:49:37.870Z,1.90
2019-04-16T21:52:05.851Z,2.07
2019-04-16T21:54:32.777Z,2.57
2019-04-16T21:56:59.669Z,1.90
2019-04-16T21:59:26.530Z,2.00
2019-04-16T22:01:53.855Z,2.30
2019-04-16T22:04:20.647Z,1.90
2019-04-16T22:06:49.132Z,2.17
2019-04-16T22:09:16.353Z,1.93
2019-04-16T22:11:44.381Z,2.17
2019-04-16T22:14:11.677Z,1.90
2019-04-16T22:16:38.475Z,2.23
2019-04-16T22:19:05.369Z,2.20
2019-04-16T22:21:32.289Z,2.20
2019-04-16T22:23:59.102Z,2.20
2019-04-16T22:26:26.038Z,2.00
2019-04-16T22:28:52.997Z,2.17
2019-04-16T22:31:20.848Z,1.90
2019-04-16T22:33:48.522Z,2.20
2019-04-16T22:36:15.310Z,2.37
2019-04-16T22:38:45.142Z,2.30
2019-04-16T22:41:23.535Z,2.10
2019-04-16T22:44:23.256Z,2.07
2019-04-16T22:46:53.477Z,1.93
2019-04-16T22:49:22.487Z,2.07
2019-04-16T22:51:49.070Z,2.53
2019-04-16T22:54:17.721Z,2.40
2019-04-16T22:57:07.058Z,2.10
2019-04-16T22:59:39.016Z,2.30
2019-04-16T23:02:08.339Z,2.10
2019-04-16T23:04:35.117Z,2.40
2019-04-16T23:07:02.050Z,2.00
2019-04-16T23:09:30.332Z,2.10
2019-04-16T23:11:57.264Z,2.40
2019-04-16T23:14:24.278Z,2.13
2019-04-16T23:16:51.155Z,2.10
2019-04-16T23:19:20.375Z,2.40
2019-04-16T23:21:46.874Z,2.10
2019-04-16T23:24:13.800Z,2.00
2019-04-16T23:26:40.706Z,1.83
2019-04-16T23:29:07.542Z,2.10
2019-04-16T23:31:34.337Z,2.57
2019-04-16T23:34:05.071Z,2.30
2019-04-16T23:36:30.208Z,2.17
2019-04-16T23:38:57.411Z,2.07
2019-04-16T23:41:24.598Z,2.20
2019-04-16T23:44:01.058Z,2.13
2019-04-16T23:46:47.028Z,2.10
2019-04-16T23:49:36.646Z,2.07
2019-04-16T23:52:12.461Z,2.30
2019-04-16T23:54:44.033Z,2.00
2019-04-16T23:57:25.475Z,2.17
